Time;durP1;ratioP1;P1;durP2;ratioP2;P2;SDS_P1;SDS_P2;PMS_P1;PMS_P2;Temp;Humidity;BMP_temperature;BMP_pressure;BME280_temperature;BME280_humidity;BME280_pressure;Samples;Min_cycle;Max_cycle;Signal;HPM_P1;HPM_P2
2022/09/16 00:00:41;;;;;;;7.50;5.60;;;;;;;14.09;100.00;154979.41;5083144;28;20485;-75
2022/09/16 00:03:08;;;;;;;7.20;4.77;;;;;;;14.13;100.00;154988.50;5033453;28;20452;-75
2022/09/16 00:05:36;;;;;;;8.73;5.63;;;;;;;14.15;100.00;154995.00;5083948;28;20431;-74
2022/09/16 00:08:03;;;;;;;6.23;5.53;;;;;;;14.16;100.00;154997.59;5050367;28;20439;-74
2022/09/16 00:10:31;;;;;;;5.93;5.17;;;;;;;14.17;100.00;155000.19;5081908;28;20443;-74
2022/09/16 00:12:58;;;;;;;5.10;4.60;;;;;;;14.18;100.00;155001.50;5082715;28;20481;-74
2022/09/16 00:15:24;;;;;;;6.00;5.40;;;;;;;14.19;100.00;155005.34;5083430;28;20439;-75
2022/09/16 00:17:51;;;;;;;5.50;4.90;;;;;;;14.21;100.00;155010.59;5083560;28;20478;-75
2022/09/16 00:20:17;;;;;;;5.67;5.13;;;;;;;14.18;100.00;155002.78;5051078;28;20442;-75
2022/09/16 00:22:44;;;;;;;6.27;5.20;;;;;;;14.18;100.00;155001.50;5083158;28;20550;-74
2022/09/16 00:25:11;;;;;;;7.07;5.70;;;;;;;14.16;100.00;154997.59;5050802;28;20431;-74
2022/09/16 00:27:39;;;;;;;5.70;5.10;;;;;;;14.12;100.00;154987.19;5051074;28;20533;-74
2022/09/16 00:30:07;;;;;;;6.10;5.50;;;;;;;14.13;100.00;154988.50;5082030;28;20457;-74
2022/09/16 00:32:33;;;;;;;5.70;5.17;;;;;;;14.13;100.00;154988.50;5050893;28;20475;-74
2022/09/16 00:35:00;;;;;;;5.80;5.20;;;;;;;14.08;100.00;154975.53;5051120;28;20423;-74
2022/09/16 00:37:27;;;;;;;7.27;5.70;;;;;;;14.08;100.00;154976.84;5057339;28;20444;-74
2022/09/16 00:39:53;;;;;;;6.73;5.60;;;;;;;14.06;100.00;154971.59;5072955;28;20446;-74
2022/09/16 00:42:20;;;;;;;5.43;4.93;;;;;;;14.03;100.00;154965.13;5082843;28;20941;-74
2022/09/16 00:44:57;;;;;;;5.50;5.00;;;;;;;14.06;100.00;154971.59;5050654;28;20753;-74
2022/09/16 00:47:28;;;;;;;6.07;5.07;;;;;;;14.07;100.00;154972.91;5050863;28;20484;-74
2022/09/16 00:49:58;;;;;;;5.73;5.23;;;;;;;14.08;100.00;154976.84;5050015;28;20517;-74
2022/09/16 00:52:25;;;;;;;5.47;4.87;;;;;;;14.07;100.00;154974.22;5049703;28;20475;-74
2022/09/16 00:54:52;;;;;;;7.50;5.30;;;;;;;14.05;100.00;154969.03;5094975;28;20445;-74
2022/09/16 00:57:19;;;;;;;5.73;5.13;;;;;;;14.00;100.00;154957.31;5059923;28;20465;-74
2022/09/16 00:59:48;;;;;;;5.57;4.93;;;;;;;14.00;100.00;154956.06;5050672;28;20469;-74
2022/09/16 01:02:17;;;;;;;5.43;4.70;;;;;;;13.98;100.00;154950.81;5065773;28;20941;-75
2022/09/16 01:04:50;;;;;;;5.60;5.10;;;;;;;13.97;100.00;154949.56;5082550;28;20454;-75
2022/09/16 01:07:17;;;;;;;5.40;4.90;;;;;;;13.97;100.00;154948.25;5081933;28;20451;-75
2022/09/16 01:09:43;;;;;;;5.43;4.93;;;;;;;13.94;100.00;154940.47;5049766;28;20450;-75
2022/09/16 01:12:10;;;;;;;7.33;5.77;;;;;;;13.94;100.00;154941.78;5098143;28;20460;-75
2022/09/16 01:14:57;;;;;;;6.63;5.33;;;;;;;13.93;100.00;154937.84;5066062;28;20475;-75
2022/09/16 01:17:49;;;;;;;5.80;5.20;;;;;;;13.91;100.00;154932.66;5050138;28;20447;-75
2022/09/16 01:20:35;;;;;;;6.07;5.53;;;;;;;13.89;100.00;154928.81;5042659;28;20526;-75
2022/09/16 01:23:16;;;;;;;6.53;5.93;;;;;;;13.89;100.00;154927.50;5053011;28;20435;-75
2022/09/16 01:25:57;;;;;;;9.63;5.60;;;;;;;13.88;100.00;154924.88;5085893;28;20429;-75
2022/09/16 01:28:43;;;;;;;6.10;4.90;;;;;;;13.89;100.00;154927.50;5043777;28;20437;-75
2022/09/16 01:31:13;;;;;;;5.30;4.80;;;;;;;13.89;100.00;154928.81;5054788;28;20918;-75
2022/09/16 01:33:44;;;;;;;7.60;6.50;;;;;;;13.87;100.00;154922.31;5085880;28;20830;-75
2022/09/16 01:36:22;;;;;;;7.10;5.57;;;;;;;13.88;100.00;154926.19;5052892;28;20467;-76
2022/09/16 01:38:57;;;;;;;7.03;6.07;;;;;;;13.90;100.00;154930.06;5065944;28;20447;-75
2022/09/16 01:41:29;;;;;;;6.00;5.40;;;;;;;13.88;100.00;154924.88;5085679;28;20960;-75
2022/09/16 01:43:59;;;;;;;6.90;5.60;;;;;;;13.87;100.00;154922.31;5085936;28;20442;-75
2022/09/16 01:46:35;;;;;;;9.10;5.70;;;;;;;13.86;100.00;154919.69;5067414;28;20566;-75
2022/09/16 01:49:12;;;;;;;6.37;5.73;;;;;;;13.80;100.00;154904.09;5067031;28;20527;-76
2022/09/16 01:51:43;;;;;;;8.73;5.93;;;;;;;13.77;100.00;154896.31;5106202;28;20464;-75
2022/09/16 01:54:12;;;;;;;7.60;5.97;;;;;;;13.78;100.00;154898.91;5073233;28;20450;-76
2022/09/16 01:56:44;;;;;;;7.97;6.20;;;;;;;13.69;100.00;154876.84;5073407;28;20431;-75
2022/09/16 01:59:13;;;;;;;6.30;5.30;;;;;;;13.64;100.00;154863.88;5069691;28;20414;-75
2022/09/16 02:01:45;;;;;;;6.83;5.57;;;;;;;13.61;100.00;154854.81;5039337;28;20461;-76
2022/09/16 02:04:16;;;;;;;11.23;5.80;;;;;;;13.56;100.00;154841.78;5053122;28;20431;-75
2022/09/16 02:06:45;;;;;;;7.70;6.00;;;;;;;13.56;100.00;154841.78;5052677;28;20442;-75
2022/09/16 02:09:15;;;;;;;9.23;5.97;;;;;;;13.52;100.00;154832.75;5085512;28;20517;-76
2022/09/16 02:11:43;;;;;;;8.13;5.57;;;;;;;13.50;100.00;154826.25;5052993;28;20443;-75
2022/09/16 02:14:13;;;;;;;6.97;5.37;;;;;;;13.46;100.00;154817.16;5051565;28;20462;-75
2022/09/16 02:16:44;;;;;;;7.50;4.73;;;;;;;13.43;100.00;154810.66;5052127;28;20934;-75
2022/09/16 02:19:15;;;;;;;5.47;4.30;;;;;;;13.48;100.00;154821.03;5053360;28;20914;-75
2022/09/16 02:21:42;;;;;;;5.03;4.53;;;;;;;13.45;100.00;154813.28;5052387;28;20533;-75
2022/09/16 02:24:11;;;;;;;5.80;4.30;;;;;;;13.42;100.00;154808.06;5052599;28;20948;-75
2022/09/16 02:26:42;;;;;;;5.00;4.00;;;;;;;13.45;100.00;154814.53;5085107;28;20516;-75
2022/09/16 02:29:13;;;;;;;4.83;4.33;;;;;;;13.46;100.00;154815.84;5068226;28;20789;-75
2022/09/16 02:31:40;;;;;;;4.10;3.70;;;;;;;13.46;100.00;154815.84;5085397;28;20504;-75
2022/09/16 02:34:11;;;;;;;7.53;3.77;;;;;;;13.41;100.00;154804.19;5084384;28;20474;-75
2022/09/16 02:36:40;;;;;;;5.53;4.07;;;;;;;13.42;99.59;154808.06;5086172;28;20446;-75
2022/09/16 02:39:09;;;;;;;4.97;3.70;;;;;;;13.42;100.00;154806.81;5089208;28;20947;-76
2022/09/16 02:41:36;;;;;;;5.43;3.87;;;;;;;13.38;100.00;154797.69;5071668;28;20545;-75
2022/09/16 02:44:03;;;;;;;4.23;3.53;;;;;;;13.38;100.00;154797.69;5105231;28;20529;-75
2022/09/16 02:46:37;;;;;;;3.80;3.50;;;;;;;13.35;100.00;154788.59;5071838;28;20448;-75
2022/09/16 02:49:11;;;;;;;4.73;3.73;;;;;;;13.32;100.00;154782.13;5072734;28;20964;-75
2022/09/16 02:51:43;;;;;;;5.33;3.30;;;;;;;13.28;100.00;154771.75;5105429;28;20446;-76
2022/09/16 02:54:14;;;;;;;3.93;3.03;;;;;;;13.29;100.00;154773.06;5104145;28;20532;-75
2022/09/16 02:56:41;;;;;;;9.23;3.50;;;;;;;13.30;100.00;154775.63;5059762;28;20524;-75
2022/09/16 02:59:10;;;;;;;4.73;4.10;;;;;;;13.31;97.49;154778.25;5044381;28;20977;-75
2022/09/16 03:01:40;;;;;;;4.77;3.30;;;;;;;13.29;98.80;154773.06;5044349;28;20788;-75
2022/09/16 03:04:07;;;;;;;4.43;3.67;;;;;;;13.28;99.97;154771.75;5035842;28;20543;-76
2022/09/16 03:06:35;;;;;;;5.30;3.77;;;;;;;13.28;100.00;154770.44;5048113;28;20455;-75
2022/09/16 03:09:04;;;;;;;4.50;3.60;;;;;;;13.21;100.00;154753.56;5064021;28;20444;-75
2022/09/16 03:12:05;;;;;;;8.30;3.97;;;;;;;13.22;100.00;154756.19;5050118;28;21011;-75
2022/09/16 03:14:46;;;;;;;4.00;3.10;;;;;;;13.21;100.00;154752.31;5057001;28;20473;-75
2022/09/16 03:17:23;;;;;;;5.77;3.63;;;;;;;13.22;99.11;154754.88;5086632;28;20447;-75
2022/09/16 03:19:59;;;;;;;7.10;4.00;;;;;;;13.22;99.17;154756.19;5034590;28;20450;-75
2022/09/16 03:22:37;;;;;;;4.63;3.47;;;;;;;13.27;100.00;154769.13;5052873;28;20508;-75
2022/09/16 03:25:14;;;;;;;4.60;3.37;;;;;;;13.24;100.00;154760.03;5082023;28;20457;-75
2022/09/16 03:27:43;;;;;;;4.17;3.57;;;;;;;13.26;100.00;154766.53;5048151;28;20538;-75
2022/09/16 03:30:10;;;;;;;5.97;3.30;;;;;;;13.25;100.00;154762.66;5040286;28;20799;-75
2022/09/16 03:32:40;;;;;;;4.13;3.73;;;;;;;13.24;100.00;154760.03;5084635;28;20826;-75
2022/09/16 03:35:11;;;;;;;3.50;2.73;;;;;;;13.23;100.00;154758.78;5067272;28;20459;-75
2022/09/16 03:37:40;;;;;;;4.70;2.90;;;;;;;13.23;100.00;154758.78;5084418;28;20455;-75
2022/09/16 03:40:10;;;;;;;4.93;3.03;;;;;;;13.22;100.00;154754.88;5034049;28;20435;-75
2022/09/16 03:42:38;;;;;;;4.70;3.43;;;;;;;13.21;100.00;154752.31;5039727;28;20516;-76
2022/09/16 03:45:06;;;;;;;3.50;2.80;;;;;;;13.20;100.00;154749.69;5082769;28;20451;-75
2022/09/16 03:47:33;;;;;;;2.87;2.53;;;;;;;13.22;100.00;154756.19;5061801;28;20438;-75
2022/09/16 03:50:00;;;;;;;3.83;2.93;;;;;;;13.21;100.00;154752.31;5070818;28;21027;-75
2022/09/16 03:52:26;;;;;;;3.50;2.43;;;;;;;13.19;100.00;154747.06;5051411;28;20537;-75
2022/09/16 03:54:55;;;;;;;4.20;3.30;;;;;;;13.21;99.83;154753.56;5082986;28;20463;-75
2022/09/16 03:57:21;;;;;;;3.33;2.90;;;;;;;13.23;100.00;154757.47;5045259;28;20488;-75
2022/09/16 03:59:48;;;;;;;3.73;2.70;;;;;;;13.19;100.00;154747.06;5039355;28;20466;-75
2022/09/16 04:02:15;;;;;;;5.10;3.00;;;;;;;13.19;100.00;154748.38;5078763;28;20458;-75
2022/09/16 04:04:41;;;;;;;3.13;2.60;;;;;;;13.17;99.95;154743.22;5060598;28;20450;-75
2022/09/16 04:07:08;;;;;;;5.77;2.63;;;;;;;13.17;97.85;154743.22;5070438;28;20925;-75
2022/09/16 04:09:36;;;;;;;7.37;2.70;;;;;;;13.18;97.84;154744.50;5070685;28;20521;-76
2022/09/16 04:12:06;;;;;;;5.03;2.90;;;;;;;13.16;99.29;154740.59;5082714;28;20450;-75
2022/09/16 04:14:33;;;;;;;5.00;3.13;;;;;;;13.14;97.36;154735.41;5082619;28;20499;-76
2022/09/16 04:17:00;;;;;;;3.70;2.50;;;;;;;13.16;99.26;154740.59;5083330;28;20462;-75
2022/09/16 04:19:26;;;;;;;6.47;3.13;;;;;;;13.15;98.09;154736.72;5084061;28;20435;-75
2022/09/16 04:21:53;;;;;;;5.27;3.77;;;;;;;13.14;96.60;154735.41;5081766;28;20451;-75
2022/09/16 04:24:20;;;;;;;3.30;2.83;;;;;;;13.17;97.72;154743.22;5082802;28;20442;-75
2022/09/16 04:26:47;;;;;;;3.70;3.10;;;;;;;13.15;96.40;154738.03;5049482;28;20446;-75
2022/09/16 04:29:16;;;;;;;4.73;3.30;;;;;;;13.18;96.17;154745.81;5051679;28;20522;-75
2022/09/16 04:31:42;;;;;;;4.07;2.90;;;;;;;13.20;96.26;154749.69;5083213;28;20457;-76
2022/09/16 04:34:10;;;;;;;3.33;3.03;;;;;;;13.18;97.91;154745.81;5051281;28;20463;-75
2022/09/16 04:36:38;;;;;;;4.90;2.83;;;;;;;13.17;97.05;154743.22;5067129;28;20443;-75
2022/09/16 04:39:05;;;;;;;7.83;3.57;;;;;;;13.22;99.45;154754.88;5071776;28;20431;-75
2022/09/16 04:41:32;;;;;;;6.57;3.60;;;;;;;13.19;98.35;154748.38;5062786;28;21031;-75
2022/09/16 04:43:59;;;;;;;4.47;2.97;;;;;;;13.19;97.94;154748.38;5046346;28;20471;-75
2022/09/16 04:46:29;;;;;;;4.17;3.23;;;;;;;13.20;98.23;154751.00;5045735;28;20775;-75
2022/09/16 04:48:56;;;;;;;5.60;2.87;;;;;;;13.19;97.99;154748.38;5070036;28;20573;-75
2022/09/16 04:51:24;;;;;;;3.60;3.30;;;;;;;13.18;97.33;154744.50;5035356;28;20450;-75
2022/09/16 04:53:51;;;;;;;3.70;3.20;;;;;;;13.20;99.54;154751.00;5046030;28;20894;-75
2022/09/16 04:56:19;;;;;;;3.60;3.30;;;;;;;13.18;98.56;154745.81;5045621;28;20554;-76
2022/09/16 04:58:47;;;;;;;4.50;3.27;;;;;;;13.20;98.55;154749.69;5041778;28;20530;-75
2022/09/16 05:01:15;;;;;;;4.33;3.40;;;;;;;13.24;97.98;154760.03;5039575;28;20593;-76
2022/09/16 05:03:45;;;;;;;3.53;3.23;;;;;;;13.20;98.82;154749.69;5049138;28;20473;-75
2022/09/16 05:06:13;;;;;;;6.30;3.67;;;;;;;13.16;99.20;154739.28;5049152;28;20456;-75
2022/09/16 05:08:40;;;;;;;5.53;3.50;;;;;;;13.19;100.00;154747.06;5082480;28;20496;-75
2022/09/16 05:11:08;;;;;;;6.63;3.20;;;;;;;13.16;100.00;154740.59;5106177;28;20445;-75
2022/09/16 05:13:35;;;;;;;3.37;3.07;;;;;;;13.17;100.00;154743.22;5074422;28;20442;-83
2022/09/16 05:16:04;;;;;;;3.87;3.07;;;;;;;13.19;100.00;154747.06;5092112;28;20495;-83
2022/09/16 05:18:30;;;;;;;5.23;3.80;;;;;;;13.16;100.00;154740.59;5095792;28;20460;-83
2022/09/16 05:20:59;;;;;;;4.60;4.20;;;;;;;13.12;100.00;154730.22;5056898;28;20457;-83
2022/09/16 05:23:27;;;;;;;8.20;4.23;;;;;;;13.14;100.00;154735.41;5052223;28;20482;-83
2022/09/16 05:25:54;;;;;;;4.00;3.30;;;;;;;13.18;99.85;154745.81;5053517;28;20500;-83
2022/09/16 05:28:21;;;;;;;5.53;3.20;;;;;;;13.24;100.00;154761.34;5088219;28;20442;-86
2022/09/16 05:30:47;;;;;;;4.90;4.07;;;;;;;13.10;100.00;154725.06;5088494;28;20931;-85
2022/09/16 05:33:14;;;;;;;7.83;5.17;;;;;;;13.09;100.00;154722.44;5054927;28;20496;-85
2022/09/16 05:35:41;;;;;;;4.10;3.70;;;;;;;13.09;100.00;154721.13;5056072;28;20675;-85
2022/09/16 05:38:09;;;;;;;5.47;4.30;;;;;;;13.06;100.00;154714.59;5054742;28;20476;-85
2022/09/16 05:40:37;;;;;;;4.83;4.33;;;;;;;13.04;100.00;154709.44;5055871;28;20431;-85
2022/09/16 05:43:04;;;;;;;5.10;4.50;;;;;;;13.00;100.00;154699.03;5055924;28;20419;-85
2022/09/16 05:45:34;;;;;;;5.30;3.83;;;;;;;12.92;100.00;154677.00;5088303;28;20998;-85
2022/09/16 05:48:01;;;;;;;5.77;4.90;;;;;;;12.90;100.00;154673.09;5055792;28;20435;-84
2022/09/16 05:50:27;;;;;;;5.30;4.80;;;;;;;12.91;100.00;154675.69;5087781;28;20431;-85
2022/09/16 05:52:55;;;;;;;7.77;4.50;;;;;;;12.91;100.00;154674.41;5088194;28;20474;-85
2022/09/16 05:55:23;;;;;;;4.40;4.00;;;;;;;12.84;100.00;154658.81;5040139;28;20537;-85
2022/09/16 05:57:49;;;;;;;6.20;4.53;;;;;;;12.85;100.00;154660.13;5055630;28;20790;-85
2022/09/16 06:00:16;;;;;;;9.37;5.07;;;;;;;12.87;100.00;154665.28;5055628;28;20435;-85
2022/09/16 06:02:43;;;;;;;9.23;5.00;;;;;;;12.85;100.00;154660.13;5074564;28;20509;-85
2022/09/16 06:05:10;;;;;;;5.70;4.10;;;;;;;12.87;100.00;154664.03;5050955;28;20453;-85
2022/09/16 06:07:37;;;;;;;8.10;5.10;;;;;;;12.85;100.00;154660.13;5049269;28;20443;-85
2022/09/16 06:10:04;;;;;;;5.80;4.43;;;;;;;12.88;100.00;154666.59;5054017;28;20937;-85
2022/09/16 06:12:32;;;;;;;6.53;5.00;;;;;;;12.85;100.00;154660.13;5053984;28;20516;-85
2022/09/16 06:15:00;;;;;;;6.20;4.07;;;;;;;12.83;100.00;154654.94;5055164;28;20529;-85
2022/09/16 06:17:27;;;;;;;4.80;3.83;;;;;;;12.79;100.00;154644.53;5096278;28;20445;-85
2022/09/16 06:19:53;;;;;;;4.90;4.30;;;;;;;12.78;100.00;154643.28;5075394;28;20433;-85
2022/09/16 06:22:20;;;;;;;6.43;4.80;;;;;;;12.76;100.00;154636.81;5057294;28;20454;-85
2022/09/16 06:24:47;;;;;;;5.03;4.00;;;;;;;12.68;100.00;154617.31;5053521;28;20459;-84
2022/09/16 06:27:15;;;;;;;8.63;4.73;;;;;;;12.70;100.00;154622.53;5053863;28;20840;-84
2022/09/16 06:29:43;;;;;;;5.40;4.50;;;;;;;12.69;100.00;154619.91;5087175;28;20492;-84
2022/09/16 06:32:09;;;;;;;5.97;4.00;;;;;;;12.70;100.00;154621.22;5047812;28;20546;-84
2022/09/16 06:34:36;;;;;;;6.07;4.63;;;;;;;12.73;100.00;154629.00;5041539;28;20475;-84
2022/09/16 06:37:03;;;;;;;6.33;4.40;;;;;;;12.75;100.00;154635.50;5093425;28;20986;-84
2022/09/16 06:39:29;;;;;;;5.00;4.47;;;;;;;12.73;100.00;154629.00;5107266;28;20944;-84
2022/09/16 06:41:56;;;;;;;5.80;3.80;;;;;;;12.73;100.00;154629.00;5074563;28;20441;-84
2022/09/16 06:44:36;;;;;;;6.33;3.83;;;;;;;12.73;100.00;154629.00;5052607;28;20447;-84
2022/09/16 06:47:04;;;;;;;4.53;4.00;;;;;;;12.74;100.00;154631.56;5086609;28;20516;-84
2022/09/16 06:49:30;;;;;;;5.07;4.57;;;;;;;12.75;100.00;154635.50;5054512;28;20573;-84
2022/09/16 06:51:57;;;;;;;5.30;3.70;;;;;;;12.73;100.00;154629.00;5054573;28;20930;-84
2022/09/16 06:54:24;;;;;;;5.73;4.00;;;;;;;12.71;100.00;154625.09;5042475;28;20442;-85
2022/09/16 06:56:50;;;;;;;6.00;4.10;;;;;;;12.74;100.00;154631.56;5084513;28;20451;-85
2022/09/16 06:59:17;;;;;;;7.67;4.03;;;;;;;12.65;100.00;154608.25;5053491;28;20482;-84
2022/09/16 07:01:44;;;;;;;5.07;4.30;;;;;;;12.67;100.00;154614.75;5053353;28;20450;-84
2022/09/16 07:04:12;;;;;;;5.83;3.90;;;;;;;12.55;100.00;154582.34;5059530;28;20430;-85
2022/09/16 07:06:39;;;;;;;4.93;3.77;;;;;;;12.52;100.00;154574.53;5074573;28;20438;-85
2022/09/16 07:09:06;;;;;;;4.93;4.00;;;;;;;12.60;100.00;154596.56;5059063;28;20480;-85
2022/09/16 07:11:32;;;;;;;4.60;3.53;;;;;;;12.56;100.00;154584.91;5063719;28;20442;-85
2022/09/16 07:13:59;;;;;;;7.73;4.07;;;;;;;12.48;100.00;154565.44;5055951;28;20542;-85
2022/09/16 07:16:26;;;;;;;4.73;4.07;;;;;;;12.47;100.00;154562.84;5053532;28;20466;-85
2022/09/16 07:18:54;;;;;;;6.20;3.83;;;;;;;12.49;100.00;154566.75;5085825;28;20479;-84
2022/09/16 07:21:24;;;;;;;3.60;3.30;;;;;;;12.50;100.00;154570.63;5033940;28;20440;-84
2022/09/16 07:23:51;;;;;;;5.57;3.90;;;;;;;12.37;100.00;154535.59;5060025;28;20534;-84
2022/09/16 07:26:20;;;;;;;4.60;3.63;;;;;;;12.34;100.00;154527.88;5070194;28;20452;-86
2022/09/16 07:28:48;;;;;;;8.30;6.20;;;;;;;12.32;100.00;154522.66;5048973;28;20463;-86
2022/09/16 07:31:16;;;;;;;5.90;4.40;;;;;;;12.31;100.00;154520.09;5034058;28;20432;-84
2022/09/16 07:33:46;;;;;;;6.20;5.47;;;;;;;12.21;100.00;154496.72;5052198;28;20431;-85
2022/09/16 07:36:15;;;;;;;6.00;4.97;;;;;;;12.06;100.00;154457.84;5067959;28;20565;-84
2022/09/16 07:38:43;;;;;;;9.43;4.70;;;;;;;12.09;100.00;154464.31;5053479;28;20441;-84
2022/09/16 07:41:11;;;;;;;9.60;6.03;;;;;;;12.13;100.00;154475.97;5068494;28;20427;-84
2022/09/16 07:43:40;;;;;;;4.97;4.33;;;;;;;12.13;100.00;154474.66;5052563;28;20443;-84
2022/09/16 07:46:07;;;;;;;5.23;4.73;;;;;;;12.12;100.00;154473.41;5040087;28;20447;-84
2022/09/16 07:48:34;;;;;;;6.07;4.60;;;;;;;12.07;100.00;154460.41;5094561;28;20469;-84
2022/09/16 07:51:02;;;;;;;6.40;5.07;;;;;;;12.04;100.00;154452.69;5056547;28;20450;-83
2022/09/16 07:53:30;;;;;;;5.07;4.50;;;;;;;12.04;100.00;154452.69;5072788;28;20462;-84
2022/09/16 07:56:01;;;;;;;7.07;5.80;;;;;;;12.04;100.00;154452.69;5056922;28;20815;-84
2022/09/16 07:58:28;;;;;;;7.57;5.87;;;;;;;12.07;100.00;154459.16;5087368;28;20454;-84
2022/09/16 08:00:54;;;;;;;5.40;4.80;;;;;;;12.03;100.00;154450.06;5070897;28;20513;-83
2022/09/16 08:03:21;;;;;;;7.10;5.90;;;;;;;12.10;100.00;154468.19;5043575;28;20443;-84
2022/09/16 08:05:47;;;;;;;7.13;5.80;;;;;;;12.16;100.00;154483.78;5057264;28;20450;-84
2022/09/16 08:08:14;;;;;;;8.30;6.00;;;;;;;12.20;100.00;154492.84;5052555;28;20454;-84
2022/09/16 08:10:42;;;;;;;10.07;5.20;;;;;;;12.35;100.00;154530.44;5085298;28;20446;-84
2022/09/16 08:13:10;;;;;;;9.17;5.93;;;;;;;12.30;100.00;154517.47;5052878;28;20447;-84
2022/09/16 08:15:37;;;;;;;9.00;6.80;;;;;;;12.32;100.00;154522.66;5084696;28;20479;-84
2022/09/16 08:18:04;;;;;;;6.23;5.63;;;;;;;12.39;100.00;154540.84;5052258;28;20454;-84
2022/09/16 08:20:30;;;;;;;8.83;6.30;;;;;;;12.49;100.00;154568.06;5046306;28;20454;-84
2022/09/16 08:22:57;;;;;;;7.17;5.93;;;;;;;12.59;100.00;154594.00;5085035;28;20438;-85
2022/09/16 08:25:24;;;;;;;7.07;6.37;;;;;;;12.57;100.00;154588.81;5052368;28;20926;-84
2022/09/16 08:27:50;;;;;;;7.70;6.70;;;;;;;12.44;100.00;154553.78;5053083;28;20787;-87
2022/09/16 08:30:19;;;;;;;7.80;5.93;;;;;;;12.44;100.00;154553.78;5049292;28;20434;-85
2022/09/16 08:32:45;;;;;;;9.87;6.27;;;;;;;12.52;100.00;154574.53;5061559;28;20849;-85
2022/09/16 08:35:13;;;;;;;8.40;6.53;;;;;;;12.55;100.00;154583.59;5053860;28;20474;-85
2022/09/16 08:37:40;;;;;;;7.80;6.70;;;;;;;12.55;100.00;154582.34;5056724;28;20788;-85
2022/09/16 08:40:07;;;;;;;7.93;7.13;;;;;;;12.52;100.00;154574.53;5061124;28;20455;-85
2022/09/16 08:42:56;;;;;;;9.23;6.30;;;;;;;12.62;100.00;154600.47;5051088;28;20459;-85
2022/09/16 08:45:28;;;;;;;8.33;7.13;;;;;;;12.68;100.00;154616.03;5060255;28;20450;-85
2022/09/16 08:48:06;;;;;;;10.90;9.03;;;;;;;12.75;100.00;154635.50;5056877;28;20450;-84
2022/09/16 08:50:43;;;;;;;7.30;6.50;;;;;;;12.82;100.00;154652.31;5090950;28;20497;-85
2022/09/16 08:53:13;;;;;;;12.13;7.17;;;;;;;12.88;100.00;154667.91;5087091;28;20434;-85
2022/09/16 08:55:45;;;;;;;8.83;6.97;;;;;;;12.92;100.00;154678.25;5067999;28;20558;-85
2022/09/16 08:58:15;;;;;;;8.07;6.63;;;;;;;13.00;100.00;154699.03;5071799;28;20442;-85
2022/09/16 09:00:44;;;;;;;6.87;6.03;;;;;;;13.00;100.00;154699.03;5051683;28;20447;-85
2022/09/16 09:03:17;;;;;;;8.60;6.63;;;;;;;13.02;100.00;154704.25;5067912;28;20847;-85
2022/09/16 09:05:50;;;;;;;10.50;6.60;;;;;;;13.08;100.00;154719.81;5035562;28;20435;-85
2022/09/16 09:08:28;;;;;;;8.70;7.33;;;;;;;13.12;100.00;154728.94;5101140;28;20434;-85
2022/09/16 09:10:57;;;;;;;7.33;6.30;;;;;;;13.17;100.00;154743.22;5073396;28;20438;-85
2022/09/16 09:13:45;;;;;;;7.30;6.10;;;;;;;13.22;100.00;154756.19;5074726;28;20433;-84
2022/09/16 09:16:20;;;;;;;6.63;6.00;;;;;;;13.33;100.00;154784.72;5075240;28;20488;-84
2022/09/16 09:18:54;;;;;;;8.73;6.03;;;;;;;13.42;100.00;154808.06;5070006;28;20431;-84
2022/09/16 09:21:26;;;;;;;6.40;5.70;;;;;;;13.53;100.00;154835.31;5086315;28;20437;-74
2022/09/16 09:24:09;;;;;;;5.83;4.80;;;;;;;13.60;100.00;154852.22;5054241;28;20942;-74
2022/09/16 09:26:44;;;;;;;5.13;4.63;;;;;;;13.63;100.00;154860.00;5054049;28;20469;-74
2022/09/16 09:29:24;;;;;;;5.60;4.97;;;;;;;13.68;100.00;154872.97;5054323;28;20415;-74
2022/09/16 09:31:58;;;;;;;6.10;4.33;;;;;;;13.70;100.00;154878.16;5054405;28;20528;-74
2022/09/16 09:34:32;;;;;;;6.13;5.03;;;;;;;13.70;100.00;154878.16;5051801;28;20442;-74
2022/09/16 09:37:16;;;;;;;5.93;4.93;;;;;;;13.65;100.00;154865.19;5094316;28;20486;-74
2022/09/16 09:39:56;;;;;;;8.80;5.67;;;;;;;13.65;100.00;154865.19;5053610;28;20740;-75
2022/09/16 09:42:26;;;;;;;5.00;4.50;;;;;;;13.71;100.00;154880.78;5054660;28;20528;-76
2022/09/16 09:44:57;;;;;;;6.10;4.93;;;;;;;13.76;100.00;154893.75;5084539;28;20455;-75
2022/09/16 09:47:28;;;;;;;5.60;5.00;;;;;;;13.81;100.00;154908.03;5085033;28;20451;-76
2022/09/16 09:49:57;;;;;;;10.00;5.30;;;;;;;13.83;100.00;154913.22;5086063;28;20569;-75
2022/09/16 09:52:28;;;;;;;6.37;5.77;;;;;;;13.86;100.00;154919.69;5067082;28;20458;-76
2022/09/16 09:54:55;;;;;;;7.17;5.00;;;;;;;13.91;100.00;154933.97;5058606;28;20543;-75
2022/09/16 09:57:29;;;;;;;6.00;5.33;;;;;;;13.96;100.00;154945.66;5084097;28;20474;-75
2022/09/16 10:00:06;;;;;;;6.73;6.00;;;;;;;14.02;100.00;154961.25;5049016;28;20939;-75
2022/09/16 10:02:42;;;;;;;5.73;5.13;;;;;;;13.99;100.00;154953.44;5086078;28;20457;-75
2022/09/16 10:05:14;;;;;;;6.33;5.73;;;;;;;13.99;100.00;154954.75;5081391;28;20491;-75
2022/09/16 10:07:41;;;;;;;5.60;5.10;;;;;;;13.99;100.00;154953.44;5055602;28;20541;-75
2022/09/16 10:10:15;;;;;;;5.80;5.30;;;;;;;13.95;100.00;154943.09;5065195;28;20866;-75
2022/09/16 10:12:42;;;;;;;4.93;4.43;;;;;;;13.95;100.00;154943.09;5030695;28;20436;-76
2022/09/16 10:15:20;;;;;;;5.70;4.70;;;;;;;13.97;100.00;154949.56;5039820;28;20438;-76
2022/09/16 10:17:51;;;;;;;7.30;4.40;;;;;;;14.02;100.00;154961.25;5034017;28;20942;-76
2022/09/16 10:20:28;;;;;;;5.60;5.10;;;;;;;14.08;100.00;154976.84;5032268;28;20845;-75
2022/09/16 10:22:58;;;;;;;6.17;4.87;;;;;;;14.06;100.00;154971.59;5032531;28;20461;-75
2022/09/16 10:25:25;;;;;;;6.17;5.43;;;;;;;14.06;100.00;154970.34;5040261;28;20897;-75
2022/09/16 10:27:57;;;;;;;5.57;5.00;;;;;;;14.13;100.00;154989.81;5042038;28;20451;-75
2022/09/16 10:30:24;;;;;;;5.20;4.70;;;;;;;14.13;100.00;154989.81;5033529;28;20973;-75
2022/09/16 10:32:56;;;;;;;5.43;4.83;;;;;;;14.14;100.00;154991.13;5047096;28;20986;-76
2022/09/16 10:35:25;;;;;;;6.17;5.50;;;;;;;14.12;100.00;154987.19;5058650;28;20810;-75
2022/09/16 10:37:55;;;;;;;7.07;4.77;;;;;;;14.21;100.00;155010.59;5050933;28;20459;-75
2022/09/16 10:40:22;;;;;;;6.70;5.40;;;;;;;14.18;100.00;155002.78;5051333;28;20442;-75
2022/09/16 10:42:50;;;;;;;5.27;4.77;;;;;;;14.16;100.00;154997.59;5049746;28;20521;-76
2022/09/16 10:45:24;;;;;;;6.07;5.03;;;;;;;14.29;100.00;155031.38;5043480;28;20479;-75
2022/09/16 10:47:55;;;;;;;6.70;4.70;;;;;;;14.31;100.00;155036.59;5046916;28;20463;-76
2022/09/16 10:50:21;;;;;;;5.37;4.50;;;;;;;14.27;100.00;155026.13;5096215;28;20439;-75
2022/09/16 10:52:49;;;;;;;4.80;4.30;;;;;;;14.31;100.00;155036.59;5084948;28;20458;-75
2022/09/16 10:55:25;;;;;;;5.93;4.77;;;;;;;14.26;100.00;155023.56;5051744;28;20476;-75
2022/09/16 10:57:53;;;;;;;4.13;3.80;;;;;;;14.26;100.00;155022.25;5072265;28;20444;-75
2022/09/16 11:00:22;;;;;;;4.40;4.00;;;;;;;14.21;100.00;155010.59;5072697;28;20457;-75
2022/09/16 11:03:23;;;;;;;4.10;3.70;;;;;;;14.22;100.00;155011.84;5071954;28;20434;-75
2022/09/16 11:06:02;;;;;;;8.37;4.77;;;;;;;14.21;100.00;155010.59;5047811;28;20536;-75
2022/09/16 11:08:39;;;;;;;4.37;3.97;;;;;;;14.19;100.00;155005.34;5058765;28;20447;-75
2022/09/16 11:11:10;;;;;;;5.20;4.73;;;;;;;14.22;100.00;155011.84;5070940;28;20448;-76
2022/09/16 11:13:45;;;;;;;4.60;4.10;;;;;;;14.16;100.00;154997.59;5060138;28;20461;-75
2022/09/16 11:16:47;;;;;;;7.20;4.73;;;;;;;14.15;100.00;154993.69;5069876;28;20513;-76
2022/09/16 11:19:20;;;;;;;4.53;3.70;;;;;;;14.12;100.00;154985.88;5033900;28;20447;-76
2022/09/16 11:22:04;;;;;;;4.40;3.90;;;;;;;14.17;100.00;155000.19;5038654;28;20444;-75
2022/09/16 11:25:18;;;;;;;4.30;3.90;;;;;;;14.14;100.00;154992.38;5047583;28;20802;-76
2022/09/16 11:27:52;;;;;;;4.57;4.17;;;;;;;14.10;100.00;154982.03;5011400;28;20449;-76
2022/09/16 11:30:21;;;;;;;3.73;3.43;;;;;;;14.15;100.00;154995.00;5053414;28;20949;-76